sensor_id;sensor_type;location;lat;lon;timestamp;temperature;humidity
14257;DHT22;7212;53.254;6.456;2022-07-29T00:01:40;18.70;99.90
14257;DHT22;7212;53.254;6.456;2022-07-29T00:04:05;18.70;99.90
14257;DHT22;7212;53.254;6.456;2022-07-29T00:06:31;18.70;99.90
14257;DHT22;7212;53.254;6.456;2022-07-29T00:08:56;18.70;99.90
14257;DHT22;7212;53.254;6.456;2022-07-29T00:11:22;18.60;99.90
14257;DHT22;7212;53.254;6.456;2022-07-29T00:13:48;18.60;99.90
14257;DHT22;7212;53.254;6.456;2022-07-29T00:16:13;18.60;99.90
14257;DHT22;7212;53.254;6.456;2022-07-29T00:18:39;18.60;99.90
14257;DHT22;7212;53.254;6.456;2022-07-29T00:21:05;18.60;99.90
14257;DHT22;7212;53.254;6.456;2022-07-29T00:23:30;18.60;99.90
14257;DHT22;7212;53.254;6.456;2022-07-29T00:25:56;18.60;99.90
14257;DHT22;7212;53.254;6.456;2022-07-29T00:28:21;18.50;99.90
14257;DHT22;7212;53.254;6.456;2022-07-29T00:30:47;18.50;99.90
14257;DHT22;7212;53.254;6.456;2022-07-29T00:33:12;18.50;99.90
14257;DHT22;7212;53.254;6.456;2022-07-29T00:35:38;18.50;99.90
14257;DHT22;7212;53.254;6.456;2022-07-29T00:38:15;18.50;99.90
14257;DHT22;7212;53.254;6.456;2022-07-29T00:40:41;18.50;99.90
14257;DHT22;7212;53.254;6.456;2022-07-29T00:43:07;18.40;99.90
14257;DHT22;7212;53.254;6.456;2022-07-29T00:45:33;18.40;99.90
14257;DHT22;7212;53.254;6.456;2022-07-29T00:47:58;18.40;99.90
14257;DHT22;7212;53.254;6.456;2022-07-29T00:50:24;18.40;99.90
14257;DHT22;7212;53.254;6.456;2022-07-29T00:52:50;18.40;99.90
14257;DHT22;7212;53.254;6.456;2022-07-29T00:55:17;18.40;99.90
14257;DHT22;7212;53.254;6.456;2022-07-29T00:57:43;18.40;99.90
14257;DHT22;7212;53.254;6.456;2022-07-29T01:00:15;18.40;99.90
14257;DHT22;7212;53.254;6.456;2022-07-29T01:02:42;18.30;99.90
14257;DHT22;7212;53.254;6.456;2022-07-29T01:05:11;18.30;99.90
14257;DHT22;7212;53.254;6.456;2022-07-29T01:07:39;18.30;99.90
14257;DHT22;7212;53.254;6.456;2022-07-29T01:10:06;18.30;99.90
14257;DHT22;7212;53.254;6.456;2022-07-29T01:12:34;18.30;99.90
14257;DHT22;7212;53.254;6.456;2022-07-29T01:15:02;18.30;99.90
14257;DHT22;7212;53.254;6.456;2022-07-29T01:25:54;18.20;99.90
14257;DHT22;7212;53.254;6.456;2022-07-29T01:29:10;18.20;99.90
14257;DHT22;7212;53.254;6.456;2022-07-29T01:31:35;18.20;99.90
14257;DHT22;7212;53.254;6.456;2022-07-29T01:34:07;18.20;99.90
14257;DHT22;7212;53.254;6.456;2022-07-29T01:36:37;18.20;99.90
14257;DHT22;7212;53.254;6.456;2022-07-29T01:39:11;18.20;99.90
14257;DHT22;7212;53.254;6.456;2022-07-29T01:41:42;18.20;99.90
14257;DHT22;7212;53.254;6.456;2022-07-29T01:44:22;18.20;99.90
14257;DHT22;7212;53.254;6.456;2022-07-29T01:46:55;18.20;99.90
14257;DHT22;7212;53.254;6.456;2022-07-29T01:49:28;18.10;99.90
14257;DHT22;7212;53.254;6.456;2022-07-29T01:52:07;18.10;99.90
14257;DHT22;7212;53.254;6.456;2022-07-29T01:54:49;18.10;99.90
14257;DHT22;7212;53.254;6.456;2022-07-29T01:57:18;18.10;99.90
14257;DHT22;7212;53.254;6.456;2022-07-29T01:59:47;18.10;99.90
14257;DHT22;7212;53.254;6.456;2022-07-29T02:02:15;18.10;99.90
14257;DHT22;7212;53.254;6.456;2022-07-29T02:04:43;18.10;99.90
14257;DHT22;7212;53.254;6.456;2022-07-29T02:07:13;18.10;99.90
14257;DHT22;7212;53.254;6.456;2022-07-29T02:09:41;18.10;99.90
14257;DHT22;7212;53.254;6.456;2022-07-29T02:12:08;18.10;99.90
14257;DHT22;7212;53.254;6.456;2022-07-29T02:14:38;18.10;99.90
14257;DHT22;7212;53.254;6.456;2022-07-29T02:17:05;18.10;99.90
14257;DHT22;7212;53.254;6.456;2022-07-29T02:19:32;18.00;99.90
14257;DHT22;7212;53.254;6.456;2022-07-29T02:21:58;18.00;99.90
14257;DHT22;7212;53.254;6.456;2022-07-29T02:24:26;18.00;99.90
14257;DHT22;7212;53.254;6.456;2022-07-29T02:26:55;18.00;99.90
14257;DHT22;7212;53.254;6.456;2022-07-29T02:29:25;18.00;99.90
14257;DHT22;7212;53.254;6.456;2022-07-29T02:31:52;17.90;99.90
14257;DHT22;7212;53.254;6.456;2022-07-29T02:34:20;18.00;99.90
14257;DHT22;7212;53.254;6.456;2022-07-29T02:36:46;18.00;99.90
14257;DHT22;7212;53.254;6.456;2022-07-29T02:39:15;17.90;99.90
14257;DHT22;7212;53.254;6.456;2022-07-29T02:44:13;17.90;99.90
14257;DHT22;7212;53.254;6.456;2022-07-29T02:46:50;17.90;99.90
14257;DHT22;7212;53.254;6.456;2022-07-29T02:51:54;17.90;99.90
14257;DHT22;7212;53.254;6.456;2022-07-29T02:54:39;17.90;99.90
14257;DHT22;7212;53.254;6.456;2022-07-29T02:57:14;17.90;99.90
14257;DHT22;7212;53.254;6.456;2022-07-29T02:59:43;17.90;99.90
14257;DHT22;7212;53.254;6.456;2022-07-29T03:02:12;17.80;99.90
14257;DHT22;7212;53.254;6.456;2022-07-29T03:04:41;17.80;99.90
14257;DHT22;7212;53.254;6.456;2022-07-29T03:07:09;17.80;99.90
14257;DHT22;7212;53.254;6.456;2022-07-29T03:09:36;17.80;99.90
14257;DHT22;7212;53.254;6.456;2022-07-29T03:12:03;17.80;99.90
14257;DHT22;7212;53.254;6.456;2022-07-29T03:14:30;17.70;99.90
14257;DHT22;7212;53.254;6.456;2022-07-29T03:16:57;17.80;99.90
14257;DHT22;7212;53.254;6.456;2022-07-29T03:19:23;17.80;99.90
14257;DHT22;7212;53.254;6.456;2022-07-29T03:21:49;17.70;99.90
14257;DHT22;7212;53.254;6.456;2022-07-29T03:24:25;17.70;99.90
14257;DHT22;7212;53.254;6.456;2022-07-29T03:26:51;17.70;99.90
14257;DHT22;7212;53.254;6.456;2022-07-29T03:29:17;17.70;99.90
14257;DHT22;7212;53.254;6.456;2022-07-29T03:31:42;17.70;99.90
14257;DHT22;7212;53.254;6.456;2022-07-29T03:34:08;17.70;99.90
14257;DHT22;7212;53.254;6.456;2022-07-29T03:36:33;17.70;99.90
14257;DHT22;7212;53.254;6.456;2022-07-29T03:39:00;17.70;99.90
14257;DHT22;7212;53.254;6.456;2022-07-29T03:41:27;17.70;99.90
14257;DHT22;7212;53.254;6.456;2022-07-29T03:43:53;17.70;99.90
14257;DHT22;7212;53.254;6.456;2022-07-29T03:46:22;17.70;99.90
14257;DHT22;7212;53.254;6.456;2022-07-29T03:48:50;17.60;99.90
14257;DHT22;7212;53.254;6.456;2022-07-29T03:51:18;17.60;99.90
14257;DHT22;7212;53.254;6.456;2022-07-29T03:53:43;17.60;99.90
14257;DHT22;7212;53.254;6.456;2022-07-29T03:56:10;17.60;99.90
14257;DHT22;7212;53.254;6.456;2022-07-29T03:58:38;17.60;99.90
14257;DHT22;7212;53.254;6.456;2022-07-29T04:01:04;17.60;99.90
14257;DHT22;7212;53.254;6.456;2022-07-29T04:03:30;17.60;99.90
14257;DHT22;7212;53.254;6.456;2022-07-29T04:06:03;17.60;99.90
14257;DHT22;7212;53.254;6.456;2022-07-29T04:08:32;17.60;99.90
14257;DHT22;7212;53.254;6.456;2022-07-29T04:10:58;17.60;99.90
14257;DHT22;7212;53.254;6.456;2022-07-29T04:13:23;17.50;99.90
14257;DHT22;7212;53.254;6.456;2022-07-29T04:15:49;17.50;99.90
14257;DHT22;7212;53.254;6.456;2022-07-29T04:18:15;17.60;99.90
14257;DHT22;7212;53.254;6.456;2022-07-29T04:20:40;17.60;99.90
14257;DHT22;7212;53.254;6.456;2022-07-29T04:23:06;17.50;99.90
14257;DHT22;7212;53.254;6.456;2022-07-29T04:25:31;17.60;99.90
14257;DHT22;7212;53.254;6.456;2022-07-29T04:27:57;17.60;99.90
14257;DHT22;7212;53.254;6.456;2022-07-29T04:30:25;17.50;99.90
14257;DHT22;7212;53.254;6.456;2022-07-29T04:32:51;17.50;99.90
14257;DHT22;7212;53.254;6.456;2022-07-29T04:35:18;17.50;99.90
14257;DHT22;7212;53.254;6.456;2022-07-29T04:37:43;17.50;99.90
14257;DHT22;7212;53.254;6.456;2022-07-29T04:40:10;17.50;99.90
14257;DHT22;7212;53.254;6.456;2022-07-29T04:42:35;17.50;99.90
14257;DHT22;7212;53.254;6.456;2022-07-29T04:45:01;17.50;99.90
14257;DHT22;7212;53.254;6.456;2022-07-29T04:47:26;17.50;99.90
14257;DHT22;7212;53.254;6.456;2022-07-29T04:49:52;17.50;99.90
14257;DHT22;7212;53.254;6.456;2022-07-29T04:52:17;17.50;99.90
14257;DHT22;7212;53.254;6.456;2022-07-29T04:54:43;17.60;99.90
14257;DHT22;7212;53.254;6.456;2022-07-29T04:57:09;17.50;99.90
14257;DHT22;7212;53.254;6.456;2022-07-29T04:59:34;17.60;99.90
14257;DHT22;7212;53.254;6.456;2022-07-29T05:02:00;17.60;99.90
14257;DHT22;7212;53.254;6.456;2022-07-29T05:04:25;17.50;99.90
14257;DHT22;7212;53.254;6.456;2022-07-29T05:06:51;17.60;99.90
14257;DHT22;7212;53.254;6.456;2022-07-29T05:09:17;17.50;99.90
14257;DHT22;7212;53.254;6.456;2022-07-29T05:11:42;17.50;99.90
14257;DHT22;7212;53.254;6.456;2022-07-29T05:14:08;17.60;99.90
14257;DHT22;7212;53.254;6.456;2022-07-29T05:16:33;17.60;99.90
14257;DHT22;7212;53.254;6.456;2022-07-29T05:18:59;17.60;99.90
14257;DHT22;7212;53.254;6.456;2022-07-29T05:21:25;17.60;99.90
14257;DHT22;7212;53.254;6.456;2022-07-29T05:23:50;17.60;99.90
14257;DHT22;7212;53.254;6.456;2022-07-29T05:26:16;17.60;99.90
14257;DHT22;7212;53.254;6.456;2022-07-29T05:28:42;17.60;99.90
14257;DHT22;7212;53.254;6.456;2022-07-29T05:31:07;17.60;99.90
14257;DHT22;7212;53.254;6.456;2022-07-29T05:33:33;17.60;99.90
14257;DHT22;7212;53.254;6.456;2022-07-29T05:35:58;17.70;99.90
14257;DHT22;7212;53.254;6.456;2022-07-29T05:38:24;17.70;99.90
14257;DHT22;7212;53.254;6.456;2022-07-29T05:40:50;17.70;99.90
14257;DHT22;7212;53.254;6.456;2022-07-29T05:43:15;17.70;99.90
14257;DHT22;7212;53.254;6.456;2022-07-29T05:45:41;17.70;99.90
14257;DHT22;7212;53.254;6.456;2022-07-29T05:48:06;17.70;99.90
14257;DHT22;7212;53.254;6.456;2022-07-29T05:50:32;17.80;99.90
14257;DHT22;7212;53.254;6.456;2022-07-29T05:52:57;17.80;99.90
14257;DHT22;7212;53.254;6.456;2022-07-29T05:55:23;17.80;99.90
14257;DHT22;7212;53.254;6.456;2022-07-29T05:57:49;17.80;99.90
14257;DHT22;7212;53.254;6.456;2022-07-29T06:00:17;17.80;99.90
14257;DHT22;7212;53.254;6.456;2022-07-29T06:02:42;17.90;99.90
14257;DHT22;7212;53.254;6.456;2022-07-29T06:05:08;17.90;99.90
14257;DHT22;7212;53.254;6.456;2022-07-29T06:07:33;17.90;99.90
14257;DHT22;7212;53.254;6.456;2022-07-29T06:09:59;17.90;99.90
14257;DHT22;7212;53.254;6.456;2022-07-29T06:12:25;18.00;99.90
14257;DHT22;7212;53.254;6.456;2022-07-29T06:14:50;18.00;99.90
14257;DHT22;7212;53.254;6.456;2022-07-29T06:17:16;18.00;99.90
14257;DHT22;7212;53.254;6.456;2022-07-29T06:19:42;18.00;99.90
14257;DHT22;7212;53.254;6.456;2022-07-29T06:22:08;18.10;99.90
14257;DHT22;7212;53.254;6.456;2022-07-29T06:24:33;18.10;99.90
14257;DHT22;7212;53.254;6.456;2022-07-29T06:26:59;18.10;99.90
14257;DHT22;7212;53.254;6.456;2022-07-29T06:29:24;18.20;99.90
14257;DHT22;7212;53.254;6.456;2022-07-29T06:31:50;18.20;99.90
14257;DHT22;7212;53.254;6.456;2022-07-29T06:34:16;18.20;99.90
14257;DHT22;7212;53.254;6.456;2022-07-29T06:36:41;18.30;99.90
14257;DHT22;7212;53.254;6.456;2022-07-29T06:39:08;18.30;99.90
14257;DHT22;7212;53.254;6.456;2022-07-29T06:41:33;18.40;99.90
14257;DHT22;7212;53.254;6.456;2022-07-29T06:43:59;18.40;99.90
14257;DHT22;7212;53.254;6.456;2022-07-29T06:46:25;18.40;99.90
14257;DHT22;7212;53.254;6.456;2022-07-29T06:48:51;18.50;99.90
14257;DHT22;7212;53.254;6.456;2022-07-29T06:51:17;18.50;99.90
14257;DHT22;7212;53.254;6.456;2022-07-29T06:53:43;18.60;99.90
14257;DHT22;7212;53.254;6.456;2022-07-29T06:56:09;18.60;99.90
14257;DHT22;7212;53.254;6.456;2022-07-29T06:58:35;18.70;99.90
14257;DHT22;7212;53.254;6.456;2022-07-29T07:01:03;18.70;99.90
14257;DHT22;7212;53.254;6.456;2022-07-29T07:03:30;18.80;99.90
14257;DHT22;7212;53.254;6.456;2022-07-29T07:05:56;18.80;99.90
14257;DHT22;7212;53.254;6.456;2022-07-29T07:08:22;18.90;99.90
14257;DHT22;7212;53.254;6.456;2022-07-29T07:10:49;18.90;99.90
14257;DHT22;7212;53.254;6.456;2022-07-29T07:13:15;18.90;99.90
14257;DHT22;7212;53.254;6.456;2022-07-29T07:15:43;19.00;99.90
14257;DHT22;7212;53.254;6.456;2022-07-29T07:18:09;19.10;99.90
14257;DHT22;7212;53.254;6.456;2022-07-29T07:20:35;19.10;99.90
14257;DHT22;7212;53.254;6.456;2022-07-29T07:23:01;19.10;99.90
14257;DHT22;7212;53.254;6.456;2022-07-29T07:25:27;19.20;99.90
14257;DHT22;7212;53.254;6.456;2022-07-29T07:27:52;19.20;99.90
14257;DHT22;7212;53.254;6.456;2022-07-29T07:30:18;19.30;99.90
14257;DHT22;7212;53.254;6.456;2022-07-29T07:32:43;19.30;99.90
14257;DHT22;7212;53.254;6.456;2022-07-29T07:35:10;19.40;99.90
14257;DHT22;7212;53.254;6.456;2022-07-29T07:37:36;19.40;99.90
14257;DHT22;7212;53.254;6.456;2022-07-29T07:40:03;19.50;99.90
14257;DHT22;7212;53.254;6.456;2022-07-29T07:42:28;19.50;99.90
14257;DHT22;7212;53.254;6.456;2022-07-29T07:44:54;19.50;99.90
14257;DHT22;7212;53.254;6.456;2022-07-29T07:47:20;19.60;99.90
14257;DHT22;7212;53.254;6.456;2022-07-29T07:49:49;19.60;99.90
14257;DHT22;7212;53.254;6.456;2022-07-29T07:52:16;19.60;99.90
14257;DHT22;7212;53.254;6.456;2022-07-29T07:54:42;19.60;99.90
14257;DHT22;7212;53.254;6.456;2022-07-29T07:57:09;19.70;99.90
14257;DHT22;7212;53.254;6.456;2022-07-29T07:59:35;19.70;99.90
14257;DHT22;7212;53.254;6.456;2022-07-29T08:02:00;19.80;99.90
14257;DHT22;7212;53.254;6.456;2022-07-29T08:04:26;19.80;99.90
14257;DHT22;7212;53.254;6.456;2022-07-29T08:06:53;19.80;99.90
14257;DHT22;7212;53.254;6.456;2022-07-29T08:09:20;19.90;99.90
14257;DHT22;7212;53.254;6.456;2022-07-29T08:11:46;19.90;99.90
14257;DHT22;7212;53.254;6.456;2022-07-29T08:14:12;19.90;99.90
14257;DHT22;7212;53.254;6.456;2022-07-29T08:16:39;20.00;99.90
14257;DHT22;7212;53.254;6.456;2022-07-29T08:19:05;20.00;99.90
14257;DHT22;7212;53.254;6.456;2022-07-29T08:21:31;20.10;99.90
14257;DHT22;7212;53.254;6.456;2022-07-29T08:23:57;20.10;99.90
14257;DHT22;7212;53.254;6.456;2022-07-29T08:26:43;20.20;99.90
14257;DHT22;7212;53.254;6.456;2022-07-29T08:29:09;20.20;99.90
14257;DHT22;7212;53.254;6.456;2022-07-29T08:31:36;20.30;99.90
14257;DHT22;7212;53.254;6.456;2022-07-29T08:34:02;20.30;99.90
14257;DHT22;7212;53.254;6.456;2022-07-29T08:36:29;20.30;99.90
14257;DHT22;7212;53.254;6.456;2022-07-29T08:38:55;20.40;99.90
14257;DHT22;7212;53.254;6.456;2022-07-29T08:41:20;20.40;99.90
14257;DHT22;7212;53.254;6.456;2022-07-29T08:43:48;20.40;99.90
14257;DHT22;7212;53.254;6.456;2022-07-29T08:46:14;20.50;99.90
14257;DHT22;7212;53.254;6.456;2022-07-29T08:48:41;20.50;99.90
14257;DHT22;7212;53.254;6.456;2022-07-29T08:51:07;20.50;99.90
14257;DHT22;7212;53.254;6.456;2022-07-29T08:53:33;20.60;99.90
14257;DHT22;7212;53.254;6.456;2022-07-29T08:55:59;20.60;99.90
14257;DHT22;7212;53.254;6.456;2022-07-29T08:58:30;20.70;99.90
14257;DHT22;7212;53.254;6.456;2022-07-29T09:00:57;20.70;99.90
14257;DHT22;7212;53.254;6.456;2022-07-29T09:03:30;20.80;99.90
14257;DHT22;7212;53.254;6.456;2022-07-29T09:05:56;20.80;99.90
14257;DHT22;7212;53.254;6.456;2022-07-29T09:08:23;20.80;99.90
14257;DHT22;7212;53.254;6.456;2022-07-29T09:10:49;20.90;99.90
14257;DHT22;7212;53.254;6.456;2022-07-29T09:13:16;20.90;99.90
14257;DHT22;7212;53.254;6.456;2022-07-29T09:15:42;21.00;99.90
14257;DHT22;7212;53.254;6.456;2022-07-29T09:18:07;21.10;99.90
14257;DHT22;7212;53.254;6.456;2022-07-29T09:20:33;21.10;99.90
14257;DHT22;7212;53.254;6.456;2022-07-29T09:23:19;21.20;99.90
14257;DHT22;7212;53.254;6.456;2022-07-29T09:25:44;21.20;99.90
14257;DHT22;7212;53.254;6.456;2022-07-29T09:28:12;21.30;99.90
14257;DHT22;7212;53.254;6.456;2022-07-29T09:30:58;21.30;99.90
14257;DHT22;7212;53.254;6.456;2022-07-29T09:33:32;21.40;99.90
14257;DHT22;7212;53.254;6.456;2022-07-29T09:36:01;21.50;99.90
14257;DHT22;7212;53.254;6.456;2022-07-29T09:38:27;21.50;99.90
14257;DHT22;7212;53.254;6.456;2022-07-29T09:41:01;21.50;99.90
14257;DHT22;7212;53.254;6.456;2022-07-29T09:43:27;21.50;99.90
14257;DHT22;7212;53.254;6.456;2022-07-29T09:45:53;21.60;99.90
14257;DHT22;7212;53.254;6.456;2022-07-29T09:48:24;21.60;99.90
14257;DHT22;7212;53.254;6.456;2022-07-29T09:50:50;21.70;99.90
14257;DHT22;7212;53.254;6.456;2022-07-29T09:53:36;21.70;99.90
14257;DHT22;7212;53.254;6.456;2022-07-29T09:56:05;21.70;99.90
14257;DHT22;7212;53.254;6.456;2022-07-29T09:58:30;21.80;99.90
14257;DHT22;7212;53.254;6.456;2022-07-29T10:00:59;21.80;99.90
14257;DHT22;7212;53.254;6.456;2022-07-29T10:03:24;21.90;99.90
14257;DHT22;7212;53.254;6.456;2022-07-29T10:06:10;21.90;99.90
14257;DHT22;7212;53.254;6.456;2022-07-29T10:08:36;22.00;99.90
14257;DHT22;7212;53.254;6.456;2022-07-29T10:11:16;22.10;99.90
14257;DHT22;7212;53.254;6.456;2022-07-29T10:13:43;22.10;99.90
14257;DHT22;7212;53.254;6.456;2022-07-29T10:16:10;22.10;99.90
14257;DHT22;7212;53.254;6.456;2022-07-29T10:18:38;22.20;99.90
14257;DHT22;7212;53.254;6.456;2022-07-29T10:21:04;22.20;99.90
14257;DHT22;7212;53.254;6.456;2022-07-29T10:23:30;22.20;99.90
14257;DHT22;7212;53.254;6.456;2022-07-29T10:25:56;22.20;99.90
14257;DHT22;7212;53.254;6.456;2022-07-29T10:28:22;22.20;99.90
14257;DHT22;7212;53.254;6.456;2022-07-29T10:30:50;22.30;99.90
14257;DHT22;7212;53.254;6.456;2022-07-29T10:33:32;22.30;99.90
14257;DHT22;7212;53.254;6.456;2022-07-29T10:36:45;22.40;99.90
14257;DHT22;7212;53.254;6.456;2022-07-29T10:39:42;22.40;99.90
14257;DHT22;7212;53.254;6.456;2022-07-29T10:42:22;22.50;99.90
14257;DHT22;7212;53.254;6.456;2022-07-29T10:44:50;22.60;99.90
14257;DHT22;7212;53.254;6.456;2022-07-29T10:47:26;22.60;99.90
14257;DHT22;7212;53.254;6.456;2022-07-29T10:50:03;22.60;99.90
14257;DHT22;7212;53.254;6.456;2022-07-29T10:52:53;22.60;99.90
14257;DHT22;7212;53.254;6.456;2022-07-29T10:55:36;22.70;99.90
14257;DHT22;7212;53.254;6.456;2022-07-29T10:58:16;22.70;99.90
14257;DHT22;7212;53.254;6.456;2022-07-29T11:00:43;22.70;99.90
14257;DHT22;7212;53.254;6.456;2022-07-29T11:03:09;22.70;99.90
14257;DHT22;7212;53.254;6.456;2022-07-29T11:05:54;22.70;99.90
14257;DHT22;7212;53.254;6.456;2022-07-29T11:08:21;22.70;99.90
14257;DHT22;7212;53.254;6.456;2022-07-29T11:10:50;22.80;99.90
14257;DHT22;7212;53.254;6.456;2022-07-29T11:13:49;22.80;99.90
14257;DHT22;7212;53.254;6.456;2022-07-29T11:16:16;22.90;99.90
14257;DHT22;7212;53.254;6.456;2022-07-29T11:21:37;22.90;99.90
14257;DHT22;7212;53.254;6.456;2022-07-29T11:24:17;22.90;99.90
14257;DHT22;7212;53.254;6.456;2022-07-29T11:26:44;22.90;99.90
14257;DHT22;7212;53.254;6.456;2022-07-29T11:29:21;22.90;99.90
14257;DHT22;7212;53.254;6.456;2022-07-29T11:31:52;22.90;99.90
14257;DHT22;7212;53.254;6.456;2022-07-29T11:34:21;23.00;99.90
14257;DHT22;7212;53.254;6.456;2022-07-29T11:45:11;23.10;99.90
14257;DHT22;7212;53.254;6.456;2022-07-29T11:50:16;23.30;99.90
14257;DHT22;7212;53.254;6.456;2022-07-29T11:52:44;23.30;99.90
14257;DHT22;7212;53.254;6.456;2022-07-29T11:55:15;23.40;99.90
14257;DHT22;7212;53.254;6.456;2022-07-29T11:57:49;23.40;99.90
14257;DHT22;7212;53.254;6.456;2022-07-29T12:00:38;23.50;99.90
14257;DHT22;7212;53.254;6.456;2022-07-29T12:03:06;23.50;99.90
14257;DHT22;7212;53.254;6.456;2022-07-29T12:05:35;23.60;99.90
14257;DHT22;7212;53.254;6.456;2022-07-29T12:08:06;23.70;99.90
14257;DHT22;7212;53.254;6.456;2022-07-29T12:10:32;23.70;99.90
14257;DHT22;7212;53.254;6.456;2022-07-29T12:12:57;23.80;99.90
14257;DHT22;7212;53.254;6.456;2022-07-29T12:15:23;23.90;99.90
14257;DHT22;7212;53.254;6.456;2022-07-29T12:17:50;24.00;99.90
14257;DHT22;7212;53.254;6.456;2022-07-29T12:20:27;24.10;99.90
14257;DHT22;7212;53.254;6.456;2022-07-29T12:22:55;24.20;99.90
14257;DHT22;7212;53.254;6.456;2022-07-29T12:25:22;24.30;99.90
14257;DHT22;7212;53.254;6.456;2022-07-29T12:28:02;24.40;99.90
14257;DHT22;7212;53.254;6.456;2022-07-29T12:33:01;24.70;99.90
14257;DHT22;7212;53.254;6.456;2022-07-29T12:35:27;24.80;99.90
14257;DHT22;7212;53.254;6.456;2022-07-29T12:37:53;24.80;99.90
14257;DHT22;7212;53.254;6.456;2022-07-29T12:40:20;24.80;99.90
14257;DHT22;7212;53.254;6.456;2022-07-29T12:43:06;24.90;99.90
14257;DHT22;7212;53.254;6.456;2022-07-29T12:45:36;25.00;99.90
14257;DHT22;7212;53.254;6.456;2022-07-29T12:48:02;25.00;99.90
14257;DHT22;7212;53.254;6.456;2022-07-29T12:50:28;25.20;99.90
14257;DHT22;7212;53.254;6.456;2022-07-29T12:52:54;25.40;99.90
14257;DHT22;7212;53.254;6.456;2022-07-29T12:55:46;25.50;99.80
14257;DHT22;7212;53.254;6.456;2022-07-29T12:58:49;25.60;99.30
14257;DHT22;7212;53.254;6.456;2022-07-29T13:01:16;25.70;99.00
14257;DHT22;7212;53.254;6.456;2022-07-29T13:03:54;25.80;98.80
14257;DHT22;7212;53.254;6.456;2022-07-29T13:06:40;25.90;98.50
14257;DHT22;7212;53.254;6.456;2022-07-29T13:11:44;26.20;97.70
14257;DHT22;7212;53.254;6.456;2022-07-29T13:14:12;26.30;97.40
14257;DHT22;7212;53.254;6.456;2022-07-29T13:20:05;26.60;97.10
14257;DHT22;7212;53.254;6.456;2022-07-29T13:22:34;26.80;97.00
14257;DHT22;7212;53.254;6.456;2022-07-29T13:25:01;26.90;96.70
14257;DHT22;7212;53.254;6.456;2022-07-29T13:27:33;27.10;96.30
14257;DHT22;7212;53.254;6.456;2022-07-29T13:30:00;27.20;95.70
14257;DHT22;7212;53.254;6.456;2022-07-29T13:32:29;27.30;95.10
14257;DHT22;7212;53.254;6.456;2022-07-29T13:35:01;27.40;94.90
14257;DHT22;7212;53.254;6.456;2022-07-29T13:37:28;27.50;94.50
14257;DHT22;7212;53.254;6.456;2022-07-29T13:39:55;27.60;94.50
14257;DHT22;7212;53.254;6.456;2022-07-29T13:42:22;27.70;94.00
14257;DHT22;7212;53.254;6.456;2022-07-29T13:44:48;27.90;94.60
14257;DHT22;7212;53.254;6.456;2022-07-29T13:47:18;28.10;93.70
14257;DHT22;7212;53.254;6.456;2022-07-29T13:49:44;28.20;93.20
14257;DHT22;7212;53.254;6.456;2022-07-29T13:52:09;28.30;93.00
14257;DHT22;7212;53.254;6.456;2022-07-29T13:54:35;28.40;92.70
14257;DHT22;7212;53.254;6.456;2022-07-29T13:57:03;28.40;92.60
14257;DHT22;7212;53.254;6.456;2022-07-29T13:59:29;28.50;92.70
14257;DHT22;7212;53.254;6.456;2022-07-29T14:01:54;28.70;92.60
14257;DHT22;7212;53.254;6.456;2022-07-29T14:04:20;28.80;92.90
14257;DHT22;7212;53.254;6.456;2022-07-29T14:06:46;29.10;93.10
14257;DHT22;7212;53.254;6.456;2022-07-29T14:09:12;29.20;93.10
14257;DHT22;7212;53.254;6.456;2022-07-29T14:11:38;29.40;92.50
14257;DHT22;7212;53.254;6.456;2022-07-29T14:14:04;29.60;93.10
14257;DHT22;7212;53.254;6.456;2022-07-29T14:16:29;29.80;93.00
14257;DHT22;7212;53.254;6.456;2022-07-29T14:18:55;30.00;92.60
14257;DHT22;7212;53.254;6.456;2022-07-29T14:21:20;30.10;92.40
14257;DHT22;7212;53.254;6.456;2022-07-29T14:23:46;30.20;92.20
14257;DHT22;7212;53.254;6.456;2022-07-29T14:26:13;30.40;91.70
14257;DHT22;7212;53.254;6.456;2022-07-29T14:28:38;30.50;91.00
14257;DHT22;7212;53.254;6.456;2022-07-29T14:31:04;30.60;91.40
14257;DHT22;7212;53.254;6.456;2022-07-29T14:33:29;30.70;91.00
14257;DHT22;7212;53.254;6.456;2022-07-29T14:35:55;30.70;91.10
14257;DHT22;7212;53.254;6.456;2022-07-29T14:38:21;30.80;90.70
14257;DHT22;7212;53.254;6.456;2022-07-29T14:40:46;30.90;90.30
14257;DHT22;7212;53.254;6.456;2022-07-29T14:43:13;31.00;90.60
14257;DHT22;7212;53.254;6.456;2022-07-29T14:45:39;31.10;89.60
14257;DHT22;7212;53.254;6.456;2022-07-29T14:48:05;31.20;90.20
14257;DHT22;7212;53.254;6.456;2022-07-29T14:50:31;31.30;89.90
14257;DHT22;7212;53.254;6.456;2022-07-29T14:52:56;31.40;88.90
14257;DHT22;7212;53.254;6.456;2022-07-29T14:55:22;31.60;89.00
14257;DHT22;7212;53.254;6.456;2022-07-29T14:57:48;31.60;88.60
14257;DHT22;7212;53.254;6.456;2022-07-29T15:00:16;31.70;87.20
14257;DHT22;7212;53.254;6.456;2022-07-29T15:02:42;31.60;87.20
14257;DHT22;7212;53.254;6.456;2022-07-29T15:05:07;31.60;88.20
14257;DHT22;7212;53.254;6.456;2022-07-29T15:07:33;31.70;88.20
14257;DHT22;7212;53.254;6.456;2022-07-29T15:09:59;31.60;87.80
14257;DHT22;7212;53.254;6.456;2022-07-29T15:12:24;31.50;88.40
14257;DHT22;7212;53.254;6.456;2022-07-29T15:14:50;31.40;89.00
14257;DHT22;7212;53.254;6.456;2022-07-29T15:17:16;31.30;88.80
14257;DHT22;7212;53.254;6.456;2022-07-29T15:19:41;31.30;87.60
14257;DHT22;7212;53.254;6.456;2022-07-29T15:22:07;31.20;86.90
14257;DHT22;7212;53.254;6.456;2022-07-29T15:24:33;31.10;87.50
14257;DHT22;7212;53.254;6.456;2022-07-29T15:26:58;31.00;87.10
14257;DHT22;7212;53.254;6.456;2022-07-29T15:29:24;30.90;88.00
14257;DHT22;7212;53.254;6.456;2022-07-29T15:31:50;30.90;87.60
14257;DHT22;7212;53.254;6.456;2022-07-29T15:34:15;30.90;88.20
14257;DHT22;7212;53.254;6.456;2022-07-29T15:36:41;30.90;88.50
14257;DHT22;7212;53.254;6.456;2022-07-29T15:39:07;30.80;88.40
14257;DHT22;7212;53.254;6.456;2022-07-29T15:41:33;30.80;88.50
14257;DHT22;7212;53.254;6.456;2022-07-29T15:43:59;30.70;88.50
14257;DHT22;7212;53.254;6.456;2022-07-29T15:46:24;30.70;88.50
14257;DHT22;7212;53.254;6.456;2022-07-29T15:49:08;30.70;88.90
14257;DHT22;7212;53.254;6.456;2022-07-29T15:51:34;30.60;89.00
14257;DHT22;7212;53.254;6.456;2022-07-29T15:54:03;30.50;89.10
14257;DHT22;7212;53.254;6.456;2022-07-29T15:56:30;30.50;89.10
14257;DHT22;7212;53.254;6.456;2022-07-29T15:58:56;30.50;88.80
14257;DHT22;7212;53.254;6.456;2022-07-29T16:01:21;30.40;88.70
14257;DHT22;7212;53.254;6.456;2022-07-29T16:03:47;30.40;88.90
14257;DHT22;7212;53.254;6.456;2022-07-29T16:06:14;30.30;88.60
14257;DHT22;7212;53.254;6.456;2022-07-29T16:08:40;30.30;88.50
14257;DHT22;7212;53.254;6.456;2022-07-29T16:11:05;30.30;88.30
14257;DHT22;7212;53.254;6.456;2022-07-29T16:13:31;30.20;88.30
14257;DHT22;7212;53.254;6.456;2022-07-29T16:15:57;30.20;88.50
14257;DHT22;7212;53.254;6.456;2022-07-29T16:18:22;30.10;88.50
14257;DHT22;7212;53.254;6.456;2022-07-29T16:20:48;30.10;88.70
14257;DHT22;7212;53.254;6.456;2022-07-29T16:23:14;30.20;88.90
14257;DHT22;7212;53.254;6.456;2022-07-29T16:25:40;30.20;88.60
14257;DHT22;7212;53.254;6.456;2022-07-29T16:28:06;30.30;88.30